createdAt,value
2022-10-16T00:00:45.617Z,12.45
2022-10-16T00:03:13.683Z,12.48
2022-10-16T00:05:42.688Z,12.51
2022-10-16T00:08:11.378Z,12.40
2022-10-16T00:10:39.378Z,12.30
2022-10-16T00:13:08.815Z,12.32
2022-10-16T00:15:37.881Z,12.16
2022-10-16T00:18:06.380Z,12.18
2022-10-16T00:20:37.639Z,12.17
2022-10-16T00:23:06.464Z,12.16
2022-10-16T00:25:34.758Z,12.08
2022-10-16T00:28:02.647Z,12.10
2022-10-16T00:30:35.933Z,12.00
2022-10-16T00:33:03.689Z,12.02
2022-10-16T00:35:32.540Z,11.98
2022-10-16T00:38:00.319Z,11.99
2022-10-16T00:40:29.250Z,11.90
2022-10-16T00:42:57.183Z,11.86
2022-10-16T00:45:25.019Z,11.84
2022-10-16T00:47:55.802Z,11.88
2022-10-16T00:50:25.816Z,11.90
2022-10-16T00:52:54.122Z,11.91
2022-10-16T00:55:22.505Z,11.85
2022-10-16T00:57:51.781Z,11.92
2022-10-16T01:00:20.960Z,11.90
2022-10-16T01:02:55.546Z,11.97
2022-10-16T01:05:24.074Z,12.08
2022-10-16T01:07:58.222Z,12.11
2022-10-16T01:10:28.754Z,12.03
2022-10-16T01:12:59.899Z,11.99
2022-10-16T01:15:30.856Z,12.00
2022-10-16T01:18:03.053Z,12.04
2022-10-16T01:20:32.143Z,12.04
2022-10-16T01:23:09.653Z,12.19
2022-10-16T01:25:41.691Z,12.17
2022-10-16T01:28:13.282Z,12.12
2022-10-16T01:30:43.650Z,12.08
2022-10-16T01:33:16.086Z,12.14
2022-10-16T01:35:46.761Z,12.12
2022-10-16T01:38:17.797Z,12.06
2022-10-16T01:40:48.026Z,11.89
2022-10-16T01:43:19.780Z,11.90
2022-10-16T01:45:48.299Z,11.76
2022-10-16T01:48:18.598Z,11.67
2022-10-16T01:50:51.546Z,11.66
2022-10-16T01:53:19.659Z,11.59
2022-10-16T01:55:49.538Z,11.55
2022-10-16T01:58:18.648Z,11.69
2022-10-16T02:00:48.541Z,11.68
2022-10-16T02:03:18.118Z,11.68
2022-10-16T02:05:48.173Z,11.67
2022-10-16T02:08:15.976Z,11.69
2022-10-16T02:10:43.808Z,11.65
2022-10-16T02:13:13.902Z,11.78
2022-10-16T02:15:43.038Z,11.65
2022-10-16T02:18:11.369Z,11.59
2022-10-16T02:20:41.434Z,11.62
2022-10-16T02:23:12.880Z,11.76
2022-10-16T02:25:43.338Z,11.75
2022-10-16T02:28:14.302Z,11.83
2022-10-16T02:30:47.800Z,11.84
2022-10-16T02:33:16.964Z,12.05
2022-10-16T02:35:46.442Z,12.02
2022-10-16T02:38:16.020Z,12.01
2022-10-16T02:40:44.372Z,11.92
2022-10-16T02:43:12.655Z,11.87
2022-10-16T02:45:40.707Z,11.97
2022-10-16T02:48:10.364Z,11.94
2022-10-16T02:50:38.133Z,11.96
2022-10-16T02:53:05.946Z,11.97
2022-10-16T02:55:33.678Z,11.99
2022-10-16T02:58:01.569Z,12.00
2022-10-16T03:00:29.443Z,11.88
2022-10-16T03:02:57.318Z,11.84
2022-10-16T03:05:26.556Z,11.91
2022-10-16T03:07:54.540Z,11.87
2022-10-16T03:10:22.457Z,11.86
2022-10-16T03:12:50.191Z,11.88
2022-10-16T03:15:17.928Z,11.90
2022-10-16T03:17:45.681Z,11.97
2022-10-16T03:20:13.392Z,11.92
2022-10-16T03:22:42.797Z,12.05
2022-10-16T03:25:10.684Z,12.06
2022-10-16T03:27:38.627Z,12.15
2022-10-16T03:30:06.804Z,12.18
2022-10-16T03:35:03.563Z,12.27
2022-10-16T03:37:31.292Z,12.27
2022-10-16T03:40:00.825Z,12.27
2022-10-16T03:42:28.565Z,12.29
2022-10-16T03:44:56.495Z,12.29
2022-10-16T03:47:24.926Z,12.32
2022-10-16T03:49:53.025Z,12.33
2022-10-16T03:52:20.789Z,12.40
2022-10-16T03:54:48.613Z,12.30
2022-10-16T03:57:17.831Z,12.29
2022-10-16T03:59:45.608Z,12.26
2022-10-16T04:02:13.363Z,12.26
2022-10-16T04:04:41.290Z,12.16
2022-10-16T04:07:09.129Z,12.12
2022-10-16T04:09:36.897Z,12.18
2022-10-16T04:12:04.768Z,12.14
2022-10-16T04:14:33.845Z,12.01
2022-10-16T04:17:01.746Z,11.96
2022-10-16T04:19:29.473Z,11.99
2022-10-16T04:21:57.193Z,12.07
2022-10-16T04:24:24.973Z,12.16
2022-10-16T04:26:52.687Z,12.06
2022-10-16T04:29:21.135Z,12.06
2022-10-16T04:31:50.309Z,12.09
2022-10-16T04:34:18.091Z,12.12
2022-10-16T04:36:46.156Z,12.23
2022-10-16T04:39:13.887Z,12.32
2022-10-16T04:41:41.812Z,12.46
2022-10-16T04:44:09.671Z,12.48
2022-10-16T04:46:37.474Z,12.34
2022-10-16T04:49:06.587Z,12.37
2022-10-16T04:51:34.466Z,12.43
2022-10-16T04:54:02.363Z,12.37
2022-10-16T04:56:30.108Z,12.54
2022-10-16T04:58:57.820Z,12.38
2022-10-16T05:01:25.631Z,12.50
2022-10-16T05:03:53.349Z,12.57
2022-10-16T05:06:22.580Z,12.65
2022-10-16T05:08:50.332Z,12.60
2022-10-16T05:11:18.086Z,12.50
2022-10-16T05:13:45.801Z,12.59
2022-10-16T05:16:13.543Z,12.63
2022-10-16T05:18:41.417Z,12.67
2022-10-16T05:21:09.159Z,12.72
2022-10-16T05:23:38.221Z,12.74
2022-10-16T05:26:06.090Z,12.74
2022-10-16T05:28:34.086Z,12.69
2022-10-16T05:31:05.779Z,12.66
2022-10-16T05:33:33.742Z,12.69
2022-10-16T05:36:03.015Z,12.68
2022-10-16T05:38:30.868Z,12.61
2022-10-16T05:40:59.965Z,12.64
2022-10-16T05:43:28.753Z,12.67
2022-10-16T05:45:57.242Z,12.67
2022-10-16T05:48:25.109Z,12.72
2022-10-16T05:50:58.916Z,12.68
2022-10-16T05:53:27.359Z,12.62
2022-10-16T05:55:55.554Z,12.63
2022-10-16T05:58:24.991Z,12.63
2022-10-16T06:00:56.528Z,12.59
2022-10-16T06:03:24.717Z,12.65
2022-10-16T06:05:52.792Z,12.66
2022-10-16T06:08:21.596Z,12.73
2022-10-16T06:10:49.732Z,12.69
2022-10-16T06:13:17.609Z,12.64
2022-10-16T06:15:48.944Z,12.68
2022-10-16T06:18:16.687Z,12.59
2022-10-16T06:20:44.442Z,12.65
2022-10-16T06:23:21.557Z,12.71
2022-10-16T06:25:49.299Z,12.76
2022-10-16T06:28:17.407Z,12.80
2022-10-16T06:31:05.547Z,12.90
2022-10-16T06:33:36.156Z,13.04
2022-10-16T06:36:04.545Z,13.38
2022-10-16T06:38:32.787Z,13.49
2022-10-16T06:41:00.576Z,13.54
2022-10-16T06:43:28.494Z,13.69
2022-10-16T06:45:57.201Z,13.78
2022-10-16T06:48:26.538Z,13.76
2022-10-16T06:50:58.527Z,13.79
2022-10-16T06:53:26.633Z,13.80
2022-10-16T06:55:54.395Z,13.77
2022-10-16T06:58:22.211Z,13.80
2022-10-16T07:00:50.207Z,13.82
2022-10-16T07:03:21.853Z,13.80
2022-10-16T07:05:51.279Z,13.73
2022-10-16T07:08:19.031Z,13.74
2022-10-16T07:10:46.847Z,13.73
2022-10-16T07:13:15.290Z,13.89
2022-10-16T07:15:43.203Z,13.93
2022-10-16T07:18:13.845Z,14.06
2022-10-16T07:20:41.670Z,13.90
2022-10-16T07:23:11.681Z,13.81
2022-10-16T07:25:39.629Z,13.67
2022-10-16T07:28:08.042Z,13.53
2022-10-16T07:30:37.399Z,13.56
2022-10-16T07:33:05.706Z,14.23
2022-10-16T07:35:33.502Z,15.74
2022-10-16T07:38:01.267Z,16.21
2022-10-16T07:40:30.525Z,18.55
2022-10-16T07:42:58.920Z,21.13
2022-10-16T07:45:26.692Z,21.92
2022-10-16T07:47:54.657Z,23.82
2022-10-16T07:50:22.474Z,25.52
2022-10-16T07:52:50.365Z,25.79
2022-10-16T07:55:18.394Z,27.21
2022-10-16T07:57:47.475Z,28.95
2022-10-16T08:00:17.816Z,28.64
2022-10-16T08:02:45.630Z,29.46
2022-10-16T08:05:13.469Z,30.06
2022-10-16T08:07:41.345Z,29.50
2022-10-16T08:10:16.970Z,29.13
2022-10-16T08:12:44.879Z,26.64
2022-10-16T08:15:14.001Z,27.34
2022-10-16T08:17:41.778Z,28.62
2022-10-16T08:20:10.378Z,29.05
2022-10-16T08:22:38.270Z,29.41
2022-10-16T08:25:06.801Z,29.69
2022-10-16T08:27:34.652Z,28.67
2022-10-16T08:30:02.555Z,27.69
2022-10-16T08:32:31.974Z,27.56
2022-10-16T08:34:59.838Z,26.14
2022-10-16T08:37:32.023Z,28.53
2022-10-16T08:40:00.286Z,27.94
2022-10-16T08:42:34.418Z,30.53
2022-10-16T08:45:15.969Z,29.02
2022-10-16T08:47:50.112Z,28.09
2022-10-16T08:50:21.951Z,28.74
2022-10-16T08:52:49.993Z,29.70
2022-10-16T08:55:23.177Z,31.29
2022-10-16T08:57:51.343Z,31.80
2022-10-16T09:00:19.629Z,31.35
2022-10-16T09:02:52.813Z,31.66
2022-10-16T09:05:33.328Z,29.46
2022-10-16T09:08:09.124Z,30.35
2022-10-16T09:10:46.265Z,28.52
2022-10-16T09:13:19.943Z,29.00
2022-10-16T09:15:51.808Z,27.09
2022-10-16T09:18:30.009Z,27.99
2022-10-16T09:21:03.623Z,28.06
2022-10-16T09:23:40.102Z,27.97
2022-10-16T09:26:11.737Z,27.61
2022-10-16T09:28:39.859Z,27.80
2022-10-16T09:31:07.876Z,29.19
2022-10-16T09:33:38.520Z,30.98
2022-10-16T09:36:07.653Z,27.62
2022-10-16T09:38:36.820Z,26.18
2022-10-16T09:41:11.177Z,26.07
2022-10-16T09:43:42.386Z,26.31
2022-10-16T09:46:21.804Z,28.03
2022-10-16T09:48:52.131Z,29.64
2022-10-16T09:51:20.935Z,32.53
2022-10-16T09:53:48.979Z,30.43
2022-10-16T09:56:24.050Z,29.82
2022-10-16T09:58:52.715Z,31.12
2022-10-16T10:01:21.410Z,31.09
2022-10-16T10:03:50.517Z,30.20
2022-10-16T10:06:23.186Z,30.71
2022-10-16T10:08:55.318Z,31.32
2022-10-16T10:11:38.307Z,31.32
2022-10-16T10:14:06.866Z,33.92
2022-10-16T10:16:34.578Z,35.76
2022-10-16T10:19:02.975Z,37.58
2022-10-16T10:21:34.575Z,38.48
2022-10-16T10:24:02.550Z,39.57
2022-10-16T10:26:32.433Z,40.87
2022-10-16T10:29:06.305Z,39.69
2022-10-16T10:31:39.069Z,40.44
2022-10-16T10:34:20.070Z,37.15
2022-10-16T10:36:55.411Z,33.21
2022-10-16T10:39:27.551Z,30.12
2022-10-16T10:42:01.437Z,28.10
2022-10-16T10:44:44.548Z,26.60
2022-10-16T10:47:20.107Z,25.23
2022-10-16T10:49:55.279Z,24.03
2022-10-16T10:52:36.502Z,23.10
2022-10-16T10:55:11.195Z,22.52
2022-10-16T10:57:44.176Z,25.01
2022-10-16T11:00:18.557Z,26.35
2022-10-16T11:02:50.094Z,26.54
2022-10-16T11:05:25.839Z,25.24
2022-10-16T11:07:59.854Z,25.89
2022-10-16T11:10:29.191Z,26.73
2022-10-16T11:12:59.078Z,25.39
2022-10-16T11:15:30.280Z,27.48
2022-10-16T11:18:02.091Z,29.72
2022-10-16T11:20:32.081Z,26.51
2022-10-16T11:23:04.383Z,25.86
2022-10-16T11:25:33.697Z,23.35
2022-10-16T11:28:04.036Z,27.61
2022-10-16T11:30:33.134Z,31.40
2022-10-16T11:33:10.628Z,32.92
2022-10-16T11:35:43.992Z,34.66
2022-10-16T11:38:16.801Z,34.64
2022-10-16T11:40:48.690Z,34.38
2022-10-16T11:43:19.416Z,33.79
2022-10-16T11:45:48.630Z,35.27
2022-10-16T11:48:20.437Z,36.74
2022-10-16T11:50:51.972Z,34.72
2022-10-16T11:53:25.779Z,36.27
2022-10-16T11:55:53.815Z,36.97
2022-10-16T11:58:24.877Z,36.40
2022-10-16T12:00:57.820Z,35.51
2022-10-16T12:03:29.850Z,37.75
2022-10-16T12:06:08.689Z,39.86
2022-10-16T12:08:38.381Z,39.73
2022-10-16T12:11:10.413Z,36.08
2022-10-16T12:13:39.528Z,35.61
2022-10-16T12:16:08.455Z,37.33
2022-10-16T12:18:36.231Z,37.58
2022-10-16T12:21:07.469Z,38.50
2022-10-16T12:23:38.717Z,38.08
2022-10-16T12:26:08.292Z,37.34
2022-10-16T12:28:37.181Z,33.78
2022-10-16T12:31:06.830Z,34.90
2022-10-16T12:33:36.090Z,34.74
2022-10-16T12:36:05.851Z,36.75
2022-10-16T12:38:38.785Z,35.97
2022-10-16T12:41:09.256Z,37.42
2022-10-16T12:43:39.492Z,34.31
2022-10-16T12:46:22.332Z,31.98
2022-10-16T12:49:06.120Z,30.77
2022-10-16T12:51:36.858Z,29.50
2022-10-16T12:54:05.613Z,28.43
2022-10-16T12:59:15.509Z,30.27
2022-10-16T13:01:51.649Z,33.62
2022-10-16T13:04:38.554Z,34.43
2022-10-16T13:07:16.546Z,35.99
2022-10-16T13:09:50.932Z,34.53
2022-10-16T13:12:30.142Z,35.52
2022-10-16T13:15:07.920Z,35.07
2022-10-16T13:17:40.781Z,30.22
2022-10-16T13:20:14.710Z,30.40
2022-10-16T13:22:47.952Z,32.65
2022-10-16T13:25:24.303Z,33.13
2022-10-16T13:27:56.737Z,33.29
2022-10-16T13:30:28.365Z,32.63
2022-10-16T13:33:02.891Z,31.62
2022-10-16T13:35:32.201Z,29.68
2022-10-16T13:38:14.244Z,27.06
2022-10-16T13:40:55.934Z,27.06
2022-10-16T13:43:27.735Z,27.15
2022-10-16T13:45:56.709Z,27.74
2022-10-16T13:48:24.500Z,27.49
2022-10-16T13:51:05.620Z,26.75
2022-10-16T13:53:34.195Z,25.99
2022-10-16T13:56:02.271Z,25.40
2022-10-16T13:58:31.705Z,23.85
2022-10-16T14:01:00.805Z,23.05
2022-10-16T14:03:29.337Z,22.43
2022-10-16T14:05:58.922Z,21.92
2022-10-16T14:08:27.783Z,21.58
2022-10-16T14:10:58.007Z,21.41
2022-10-16T14:13:30.026Z,21.12
2022-10-16T14:16:02.046Z,21.95
2022-10-16T14:18:40.507Z,23.26
2022-10-16T14:21:09.496Z,23.95
2022-10-16T14:23:38.248Z,24.02
2022-10-16T14:26:23.658Z,24.49
2022-10-16T14:29:03.118Z,24.36
2022-10-16T14:31:33.216Z,23.09
2022-10-16T14:34:01.494Z,22.16
2022-10-16T14:36:29.640Z,21.22
2022-10-16T14:39:02.550Z,20.88
2022-10-16T14:41:31.181Z,20.43
2022-10-16T14:44:02.874Z,20.19
2022-10-16T14:46:35.427Z,19.85
2022-10-16T14:49:06.257Z,19.61
2022-10-16T14:51:34.119Z,19.50
2022-10-16T14:54:02.689Z,19.49
2022-10-16T14:56:33.211Z,19.69
2022-10-16T14:59:02.275Z,20.04
2022-10-16T15:01:30.205Z,20.12
2022-10-16T15:03:59.358Z,20.16
2022-10-16T15:06:27.139Z,20.22
2022-10-16T15:08:54.870Z,20.07
2022-10-16T15:11:22.694Z,19.68
2022-10-16T15:13:50.662Z,19.53
2022-10-16T15:16:18.924Z,19.49
2022-10-16T15:18:46.746Z,19.32
2022-10-16T15:21:22.612Z,19.23
2022-10-16T15:23:50.702Z,18.96
2022-10-16T15:26:18.544Z,18.75
2022-10-16T15:28:46.563Z,18.65
2022-10-16T15:31:14.591Z,18.62
2022-10-16T15:33:42.405Z,18.63
2022-10-16T15:36:10.340Z,18.64
2022-10-16T15:38:39.583Z,18.62
2022-10-16T15:41:07.460Z,18.67
2022-10-16T15:43:35.359Z,18.59
2022-10-16T15:46:04.550Z,18.52
2022-10-16T15:48:32.739Z,18.43
2022-10-16T15:51:01.178Z,18.33
2022-10-16T15:53:28.913Z,18.24
2022-10-16T15:55:58.309Z,18.22
2022-10-16T15:58:26.230Z,18.14
2022-10-16T16:00:57.992Z,18.00
2022-10-16T16:03:26.366Z,17.92
2022-10-16T16:05:54.149Z,17.76
2022-10-16T16:08:22.290Z,17.72
2022-10-16T16:11:00.672Z,17.64
2022-10-16T16:13:28.856Z,17.52
2022-10-16T16:15:56.694Z,17.41
2022-10-16T16:18:24.716Z,17.34
2022-10-16T16:20:52.632Z,17.31
2022-10-16T16:23:21.054Z,17.13
2022-10-16T16:28:53.694Z,16.88
2022-10-16T16:31:22.195Z,16.75
2022-10-16T16:33:52.113Z,16.65
2022-10-16T16:36:20.481Z,16.58
2022-10-16T16:38:48.536Z,16.48
2022-10-16T16:41:17.647Z,16.37
2022-10-16T16:43:45.694Z,16.37
2022-10-16T16:46:15.204Z,16.36
2022-10-16T16:48:43.079Z,16.22
2022-10-16T16:51:16.007Z,16.03
2022-10-16T16:53:44.548Z,15.90
2022-10-16T16:56:12.539Z,15.78
2022-10-16T16:58:40.576Z,15.79
2022-10-16T17:01:21.084Z,15.76
2022-10-16T17:03:52.704Z,15.72
2022-10-16T17:06:21.529Z,15.61
2022-10-16T17:08:49.360Z,15.55
2022-10-16T17:11:18.523Z,15.51
2022-10-16T17:13:46.600Z,15.47
2022-10-16T17:16:14.567Z,15.40
2022-10-16T17:18:43.193Z,15.37
2022-10-16T17:21:12.566Z,15.42
2022-10-16T17:23:40.584Z,15.48
2022-10-16T17:26:09.240Z,15.59
2022-10-16T17:28:37.265Z,15.70
2022-10-16T17:31:08.724Z,15.72
2022-10-16T17:33:36.894Z,15.65
2022-10-16T17:36:05.443Z,15.54
2022-10-16T17:38:34.529Z,15.48
2022-10-16T17:41:11.195Z,15.49
2022-10-16T17:43:39.412Z,15.51
2022-10-16T17:46:07.933Z,15.59
2022-10-16T17:48:40.471Z,15.65
2022-10-16T17:51:09.239Z,15.68
2022-10-16T17:53:38.831Z,15.73
2022-10-16T17:56:07.345Z,15.71
2022-10-16T17:58:35.462Z,15.79
2022-10-16T18:01:03.721Z,15.89
2022-10-16T18:03:31.641Z,15.90
2022-10-16T18:05:59.478Z,15.82
2022-10-16T18:08:28.838Z,15.79
2022-10-16T18:10:58.148Z,15.73
2022-10-16T18:13:26.000Z,15.78
2022-10-16T18:16:00.553Z,15.77
2022-10-16T18:18:29.737Z,15.76
2022-10-16T18:20:58.182Z,15.76
2022-10-16T18:23:34.501Z,15.78
2022-10-16T18:26:03.770Z,15.70
2022-10-16T18:28:31.784Z,15.79
2022-10-16T18:31:00.662Z,15.77
2022-10-16T18:33:30.602Z,15.76
2022-10-16T18:36:01.315Z,15.81
2022-10-16T18:38:30.248Z,15.77
2022-10-16T18:40:58.158Z,15.71
2022-10-16T18:43:27.457Z,15.74
2022-10-16T18:45:58.994Z,15.77
2022-10-16T18:48:27.453Z,15.77
2022-10-16T18:50:55.510Z,15.80
2022-10-16T18:53:23.479Z,15.73
2022-10-16T18:55:54.433Z,15.78
2022-10-16T18:58:22.593Z,15.75
2022-10-16T19:00:51.694Z,15.72
2022-10-16T19:03:19.627Z,15.66
2022-10-16T19:05:47.516Z,15.67
2022-10-16T19:08:15.623Z,15.66
2022-10-16T19:10:43.588Z,15.66
2022-10-16T19:13:11.510Z,15.62
2022-10-16T19:15:44.414Z,15.58
2022-10-16T19:18:13.964Z,15.56
2022-10-16T19:20:42.065Z,15.62
2022-10-16T19:23:14.951Z,15.62
2022-10-16T19:25:43.022Z,15.62
2022-10-16T19:28:10.962Z,15.64
2022-10-16T19:30:39.804Z,15.77
2022-10-16T19:33:07.629Z,15.57
2022-10-16T19:35:36.949Z,15.38
2022-10-16T19:38:04.911Z,15.10
2022-10-16T19:40:32.671Z,14.92
2022-10-16T19:43:00.665Z,14.73
2022-10-16T19:45:28.590Z,14.80
2022-10-16T19:47:56.649Z,14.76
2022-10-16T19:50:24.389Z,14.67
2022-10-16T19:52:53.641Z,14.46
2022-10-16T19:55:21.619Z,14.40
2022-10-16T19:57:49.429Z,14.34
2022-10-16T20:00:17.729Z,14.38
2022-10-16T20:02:45.617Z,14.46
2022-10-16T20:05:13.394Z,14.43
2022-10-16T20:07:41.294Z,14.38
2022-10-16T20:10:10.950Z,14.38
2022-10-16T20:12:38.832Z,14.41
2022-10-16T20:15:07.447Z,14.43
2022-10-16T20:17:35.288Z,14.44
2022-10-16T20:20:04.153Z,14.47
2022-10-16T20:22:31.978Z,14.46
2022-10-16T20:24:59.853Z,14.45
2022-10-16T20:27:29.553Z,14.36
2022-10-16T20:29:57.925Z,14.32
2022-10-16T20:32:25.930Z,14.31
2022-10-16T20:34:53.802Z,14.33
2022-10-16T20:37:21.752Z,14.33
2022-10-16T20:39:49.650Z,14.34
2022-10-16T20:42:17.593Z,14.39
2022-10-16T20:44:49.219Z,14.31
2022-10-16T20:47:19.572Z,14.34
2022-10-16T20:49:47.526Z,14.34
2022-10-16T20:52:15.471Z,14.27
2022-10-16T20:54:45.811Z,14.20
2022-10-16T20:57:13.726Z,14.22
2022-10-16T20:59:41.829Z,14.23
2022-10-16T21:02:14.146Z,14.31
2022-10-16T21:04:42.678Z,14.28
2022-10-16T21:07:10.705Z,14.23
2022-10-16T21:09:39.379Z,14.25
2022-10-16T21:12:08.073Z,14.26
2022-10-16T21:14:42.408Z,14.25
2022-10-16T21:17:20.808Z,14.15
2022-10-16T21:19:48.853Z,14.13
2022-10-16T21:22:16.751Z,14.08
2022-10-16T21:24:44.631Z,13.97
2022-10-16T21:27:12.649Z,13.91
2022-10-16T21:29:40.805Z,13.88
2022-10-16T21:32:08.736Z,13.83
2022-10-16T21:34:37.958Z,13.75
2022-10-16T21:37:05.805Z,13.63
2022-10-16T21:39:33.710Z,13.58
2022-10-16T21:42:01.718Z,13.52
2022-10-16T21:44:29.521Z,13.50
2022-10-16T21:46:58.586Z,13.49
2022-10-16T21:49:27.151Z,13.52
2022-10-16T21:51:56.284Z,13.47
2022-10-16T21:54:24.933Z,13.52
2022-10-16T21:56:53.400Z,13.52
2022-10-16T21:59:21.256Z,13.49
2022-10-16T22:01:49.458Z,13.51
2022-10-16T22:04:17.590Z,13.48
2022-10-16T22:06:45.775Z,13.45
2022-10-16T22:09:16.152Z,13.37
2022-10-16T22:11:45.016Z,13.41
2022-10-16T22:14:14.774Z,13.41
2022-10-16T22:16:43.366Z,13.36
2022-10-16T22:19:12.089Z,13.41
2022-10-16T22:21:40.940Z,13.38
2022-10-16T22:24:09.408Z,13.36
2022-10-16T22:26:39.214Z,13.38
2022-10-16T22:29:07.576Z,13.34
2022-10-16T22:31:35.835Z,13.37
2022-10-16T22:34:05.231Z,13.30
2022-10-16T22:36:33.539Z,13.27
2022-10-16T22:39:01.619Z,13.21
2022-10-16T22:41:29.708Z,13.17
2022-10-16T22:43:59.153Z,13.19
2022-10-16T22:46:28.739Z,13.09
2022-10-16T22:48:57.196Z,13.10
2022-10-16T22:51:25.570Z,13.09
2022-10-16T22:53:53.604Z,13.10
2022-10-16T22:56:22.269Z,13.13
2022-10-16T22:58:50.227Z,13.23
2022-10-16T23:01:21.322Z,13.22
2022-10-16T23:03:49.694Z,13.28
2022-10-16T23:06:17.682Z,13.32
2022-10-16T23:08:45.501Z,13.38
2022-10-16T23:11:14.027Z,13.45
2022-10-16T23:13:45.362Z,13.47
2022-10-16T23:16:15.600Z,13.44
2022-10-16T23:18:45.247Z,13.46
2022-10-16T23:21:14.001Z,13.47
2022-10-16T23:23:42.502Z,13.52
2022-10-16T23:26:11.650Z,13.57
2022-10-16T23:28:40.498Z,13.60
2022-10-16T23:31:08.891Z,13.65
2022-10-16T23:33:38.001Z,13.63
2022-10-16T23:36:08.484Z,13.61
2022-10-16T23:38:36.644Z,13.62
2022-10-16T23:41:05.075Z,13.67
2022-10-16T23:43:32.994Z,13.58
2022-10-16T23:46:00.979Z,13.56
2022-10-16T23:48:29.089Z,13.45
2022-10-16T23:50:56.936Z,13.41
2022-10-16T23:53:26.529Z,13.36
2022-10-16T23:55:54.576Z,13.42
2022-10-16T23:58:22.893Z,13.42
